Arnolds Park, IA

4:51 AM CDT on August 18, 2019 (GMT -0500)
Milford Fire Station | | Change Station

Elev 1443 ft 43.33 °N, 95.15 °W | Updated 5 seconds ago

Clear
Clear
61 °F
Feels Like 61 °F
N
4.3
Wind Variable Wind from NNW
Gusts 5.8 mph

Today
High -- | Low -- °F
--% Chance of Precip.
Yesterday
High -- | Low -- °F
Precip. -- in
Pressure 29.71 in
Visibility 10.0 miles
Clouds Few 8000 ft
Few 10000 ft
Scattered Clouds 12000 ft
Dew Point 58 °F
Humidity 89%
Rainfall 0.14 in
Snow Depth Not available.
6:28 AM 8:19 PM
Waning Gibbous, 93% visible
METAR KSPW 180853Z AUTO 30003KT 10SM FEW080 FEW100 SCT120 18/16 A2973 RMK AO2 LTG DSNT E RAB30E45 SLP060 P0000 60002 T01780161 56009 $
Pressure 29.71 in
Visibility 10.0 miles
Clouds Few 8000 ft
Few 10000 ft
Scattered Clouds 12000 ft
Dew Point 58 °F
Humidity 89%
Rainfall 0.14 in
Snow Depth Not available.
6:28 AM 8:19 PM
Waning Gibbous, 93% visible
METAR KSPW 180853Z AUTO 30003KT 10SM FEW080 FEW100 SCT120 18/16 A2973 RMK AO2 LTG DSNT E RAB30E45 SLP060 P0000 60002 T01780161 56009 $

Get Severe Weather Alerts

Thanks for signing up!

Be on the lookout for a verification email in your inbox.

You'll start receiving the daily forecast at 6 AM.

×

10-Day Weather Forecast

Almanac

Astronomy

Aug. 18, 2019 Rise Set
Actual Time
Civil Twilight
Nautical Twilight
Astronomical Twilight
Moon
Length of Visible Light
Length of Day
Tomorrow will be .
, % of the Moon is Illuminated

Today's Extremes

State Highs State Lows

Community

WunderPhotos

Category 6

Welcome to Category 6. This is the collective home for Weather Underground's featured writeups by Dr. Jeff Masters (right), Bob Henson (left), Chris Burt, and other regular contributors.

Nearby

Air Quality

  Air Quality AQ Index Pollutant
Not available.

Snow Depth

Station Depth Elevation

Earthquake Activity

City Distance Mag. Time & Date
Minimum magnitude displayed is 2.5.

Coastal Water Temperatures

Place Temperature

Stations

Nearby Weather Stations

Station Location Temp. Windchill Dew Point Humidity Wind Precip. Elev Updated Type
                   

Watches & Warnings

There are currently no watches in effect.